Time;durP1;ratioP1;P1;durP2;ratioP2;P2;SDS_P1;SDS_P2;PMS_P1;PMS_P2;Temp;Humidity;BMP_temperature;BMP_pressure;BME280_temperature;BME280_humidity;BME280_pressure;Samples;Min_cycle;Max_cycle;Signal;HPM_P1;HPM_P2
2021/07/11 00:02:21;;;;;;;12.65;11.28;;;;;;;28.64;47.36;99872.12;1808090;78;21578;-68
2021/07/11 00:04:47;;;;;;;13.88;9.78;;;;;;;28.62;47.49;99873.77;1812680;78;21174;-67
2021/07/11 00:07:15;;;;;;;13.93;10.45;;;;;;;28.60;47.57;99878.70;1825487;78;21548;-66
2021/07/11 00:09:42;;;;;;;18.05;11.60;;;;;;;28.59;47.69;99877.64;1798337;78;21016;-68
2021/07/11 00:12:10;;;;;;;14.18;11.63;;;;;;;28.57;47.81;99879.28;1784732;78;21027;-66
2021/07/11 00:14:36;;;;;;;14.90;10.98;;;;;;;28.55;47.93;99880.13;1781651;78;21473;-67
2021/07/11 00:17:05;;;;;;;17.25;11.68;;;;;;;28.54;47.99;99877.11;1788544;78;20998;-68
2021/07/11 00:19:31;;;;;;;17.45;10.72;;;;;;;28.54;48.11;99878.48;1825509;78;21026;-67
2021/07/11 00:21:57;;;;;;;13.40;11.63;;;;;;;28.52;48.23;99876.58;1791757;78;21079;-67
2021/07/11 00:24:24;;;;;;;14.30;11.75;;;;;;;28.51;48.31;99869.99;1781625;78;21072;-67
2021/07/11 00:26:50;;;;;;;15.23;11.65;;;;;;;28.50;48.39;99870.55;1811641;78;21044;-67
2021/07/11 00:29:17;;;;;;;13.98;10.60;;;;;;;28.49;48.49;99871.67;1782157;78;21076;-67
2021/07/11 00:31:45;;;;;;;13.50;11.25;;;;;;;28.47;48.55;99867.02;1807969;78;21482;-67
2021/07/11 00:34:11;;;;;;;19.00;11.68;;;;;;;28.45;48.65;99866.48;1825460;78;21060;-66
2021/07/11 00:36:38;;;;;;;13.98;11.57;;;;;;;28.43;48.75;99865.95;1803282;78;21016;-67
2021/07/11 00:39:04;;;;;;;20.30;11.80;;;;;;;28.42;48.81;99873.34;1817718;78;21458;-67
2021/07/11 00:41:38;;;;;;;14.38;11.65;;;;;;;28.40;48.90;99870.08;1825495;78;21063;-66
2021/07/11 00:44:07;;;;;;;16.77;12.28;;;;;;;28.40;48.94;99863.80;1822140;78;20979;-66
2021/07/11 00:46:34;;;;;;;15.38;11.43;;;;;;;28.39;49.06;99866.25;1781738;78;21047;-66
2021/07/11 00:49:04;;;;;;;15.20;11.85;;;;;;;28.37;49.11;99866.53;1782784;78;21009;-67
2021/07/11 00:51:33;;;;;;;14.25;11.65;;;;;;;28.35;49.20;99860.53;1799620;79;21017;-67
2021/07/11 00:54:00;;;;;;;20.25;12.13;;;;;;;28.34;49.29;99869.04;1785633;78;21598;-67
2021/07/11 00:56:26;;;;;;;15.75;11.40;;;;;;;28.33;49.36;99870.13;1812534;78;21620;-68
2021/07/11 00:58:54;;;;;;;13.18;11.30;;;;;;;28.30;49.38;99858.39;1781625;78;21027;-67
2021/07/11 01:01:34;;;;;;;13.05;11.53;;;;;;;28.29;49.41;99858.94;1811876;78;20990;-68
2021/07/11 01:04:03;;;;;;;18.17;11.78;;;;;;;28.27;49.37;99858.41;1805507;78;21032;-66
2021/07/11 01:06:34;;;;;;;13.72;11.15;;;;;;;28.25;49.40;99856.52;1812725;78;21106;-67
2021/07/11 01:09:05;;;;;;;14.50;11.03;;;;;;;28.23;49.40;99858.72;1781773;78;21107;-66
2021/07/11 01:11:34;;;;;;;13.68;11.43;;;;;;;28.21;49.42;99857.63;1781543;78;21543;-67
2021/07/11 01:14:01;;;;;;;15.18;11.55;;;;;;;28.19;49.44;99859.02;1816196;78;21010;-68
2021/07/11 01:16:29;;;;;;;12.85;11.57;;;;;;;28.18;49.42;99860.10;1772306;78;21068;-67
2021/07/11 01:19:33;;;;;;;16.27;10.30;;;;;;;28.17;49.42;99859.85;1785525;78;21144;-69
2021/07/11 01:22:03;;;;;;;16.12;11.10;;;;;;;28.15;49.44;99864.22;1782061;78;21543;-66
2021/07/11 01:24:34;;;;;;;11.25;9.95;;;;;;;28.13;49.50;99873.25;1796851;77;21024;-68
2021/07/11 01:27:03;;;;;;;11.88;10.68;;;;;;;28.11;49.53;99863.72;1781638;78;21037;-67
2021/07/11 01:29:30;;;;;;;12.85;10.90;;;;;;;28.09;49.53;99859.09;1790752;77;20988;-68
2021/07/11 01:31:57;;;;;;;12.07;10.80;;;;;;;28.07;49.54;99858.52;1825710;78;21112;-67
2021/07/11 01:34:24;;;;;;;12.07;9.83;;;;;;;28.06;49.55;99854.17;1820468;78;21095;-68
2021/07/11 01:38:41;;;;;;;12.50;9.83;;;;;;;28.08;49.48;99858.25;1889035;76;22535;-68
2021/07/11 01:41:11;;;;;;;12.60;10.20;;;;;;;27.97;49.54;99861.59;1823603;77;20981;-67
2021/07/11 01:43:38;;;;;;;11.18;10.03;;;;;;;27.96;49.54;99863.23;1814471;77;21147;-68
2021/07/11 01:46:07;;;;;;;10.72;9.73;;;;;;;27.95;49.54;99863.80;1846342;77;20977;-67
2021/07/11 01:48:34;;;;;;;11.22;10.03;;;;;;;27.93;49.54;99860.53;1814514;77;21010;-67
2021/07/11 01:51:02;;;;;;;12.37;10.18;;;;;;;27.91;49.62;99862.73;1814282;77;21542;-66
2021/07/11 01:53:37;;;;;;;12.55;10.38;;;;;;;27.90;49.63;99861.08;1857682;77;21040;-66
2021/07/11 01:56:05;;;;;;;12.25;10.05;;;;;;;27.88;49.63;99856.98;1832761;77;21855;-68
2021/07/11 01:58:32;;;;;;;13.32;9.58;;;;;;;27.86;49.67;99866.80;1814455;77;21071;-67
2021/07/11 02:00:59;;;;;;;14.45;9.98;;;;;;;27.84;49.75;99864.91;1782898;78;21017;-67
2021/07/11 02:03:27;;;;;;;14.23;9.45;;;;;;;27.83;49.85;99868.19;1846685;77;21027;-67
2021/07/11 02:05:59;;;;;;;12.50;10.82;;;;;;;27.81;49.92;99870.35;1813261;77;21041;-67
2021/07/11 02:08:27;;;;;;;11.90;10.70;;;;;;;27.79;49.99;99872.55;1851079;77;21141;-67
2021/07/11 02:10:55;;;;;;;15.03;11.57;;;;;;;27.77;50.10;99867.11;1859787;77;21013;-67
2021/07/11 02:13:51;;;;;;;15.20;11.05;;;;;;;27.76;50.22;99871.76;1825715;77;21018;-68
2021/07/11 02:16:32;;;;;;;13.18;10.88;;;;;;;27.73;50.30;99868.77;1844137;77;21072;-69
2021/07/11 02:18:59;;;;;;;15.08;11.30;;;;;;;27.70;50.45;99870.67;1817284;77;21010;-68
2021/07/11 02:21:30;;;;;;;14.23;11.75;;;;;;;27.64;50.58;99869.34;1840392;77;21052;-68
2021/07/11 02:23:59;;;;;;;19.12;11.90;;;;;;;27.61;50.62;99871.26;1821713;77;21516;-68
2021/07/11 02:26:27;;;;;;;17.65;11.65;;;;;;;27.59;50.69;99876.18;1835076;77;21064;-67
2021/07/11 02:28:54;;;;;;;18.45;13.08;;;;;;;27.58;50.75;99875.92;1827967;77;21034;-68
2021/07/11 02:31:21;;;;;;;21.60;12.10;;;;;;;27.56;50.80;99881.38;1859905;77;20994;-68
2021/07/11 02:33:47;;;;;;;17.82;12.30;;;;;;;27.54;50.87;99885.73;1860100;77;21083;-68
2021/07/11 02:36:21;;;;;;;14.33;11.85;;;;;;;27.53;50.92;99886.84;1823276;77;21472;-68
2021/07/11 02:39:12;;;;;;;20.72;12.35;;;;;;;27.51;50.96;99884.94;1830086;77;21131;-69
2021/07/11 02:42:01;;;;;;;14.78;11.80;;;;;;;27.51;51.03;99890.95;1852108;77;21465;-68
2021/07/11 02:44:29;;;;;;;20.52;13.05;;;;;;;27.47;51.12;99887.95;1819046;77;21033;-68
2021/07/11 02:47:03;;;;;;;18.27;12.40;;;;;;;27.45;51.24;99888.78;1836816;77;21527;-68
2021/07/11 02:49:31;;;;;;;18.35;12.18;;;;;;;27.45;51.29;99890.15;1826241;77;21072;-67
2021/07/11 02:52:05;;;;;;;15.75;12.33;;;;;;;27.42;51.37;99894.22;1836464;77;21029;-67
2021/07/11 02:54:36;;;;;;;18.55;12.75;;;;;;;27.42;51.44;99892.05;1787699;77;21580;-67
2021/07/11 02:57:04;;;;;;;14.80;13.20;;;;;;;27.41;51.52;99897.22;1859618;77;21080;-68
2021/07/11 02:59:34;;;;;;;18.65;13.08;;;;;;;27.41;51.63;99898.59;1856196;77;21120;-68
2021/07/11 03:02:05;;;;;;;18.75;13.13;;;;;;;27.40;51.76;99899.14;1813939;77;21766;-67
2021/07/11 03:04:36;;;;;;;16.73;12.85;;;;;;;27.40;51.86;99899.14;1784430;77;21045;-67
2021/07/11 03:07:05;;;;;;;16.87;12.40;;;;;;;27.39;51.94;99892.59;1859206;77;21069;-68
2021/07/11 03:09:34;;;;;;;22.13;14.00;;;;;;;27.38;52.04;99892.34;1827473;77;21525;-70
2021/07/11 03:12:01;;;;;;;19.12;13.53;;;;;;;27.38;52.11;99899.16;1849999;77;21036;-68
2021/07/11 03:14:28;;;;;;;18.10;13.15;;;;;;;27.38;52.24;99901.33;1859239;77;21076;-66
2021/07/11 03:16:56;;;;;;;18.52;13.08;;;;;;;27.38;52.34;99899.16;1827199;77;21612;-68
2021/07/11 03:19:27;;;;;;;17.27;13.28;;;;;;;27.38;52.46;99904.61;1833421;77;21568;-67
2021/07/11 03:21:56;;;;;;;19.70;13.83;;;;;;;27.38;52.63;99901.88;1814188;77;21032;-68
2021/07/11 03:24:26;;;;;;;15.83;13.50;;;;;;;27.37;52.76;99902.96;1813760;77;21192;-67
2021/07/11 03:26:55;;;;;;;20.08;13.38;;;;;;;27.37;52.89;99910.63;1813900;77;20995;-68
2021/07/11 03:29:51;;;;;;;18.30;14.80;;;;;;;27.37;53.03;99903.80;1813725;77;21124;-68
2021/07/11 03:32:10;;;;;;;14.30;12.30;;;;;;;27.37;53.17;99907.05;1812294;77;21038;-67
2021/07/11 03:34:37;;;;;;;18.45;14.30;;;;;;;27.36;53.36;99893.97;1813903;77;21080;-67
2021/07/11 03:37:08;;;;;;;14.83;13.25;;;;;;;27.37;53.49;99893.41;1843220;77;20985;-67
2021/07/11 03:39:38;;;;;;;16.52;14.60;;;;;;;27.37;53.62;99891.53;1859115;77;21076;-67
2021/07/11 03:42:08;;;;;;;16.87;14.28;;;;;;;27.38;53.68;99903.25;1813411;78;21010;-68
2021/07/11 03:44:35;;;;;;;18.57;14.30;;;;;;;27.39;53.75;99899.41;1823602;77;21208;-67
2021/07/11 03:47:03;;;;;;;14.63;13.10;;;;;;;27.39;53.87;99896.16;1835180;77;21002;-67
2021/07/11 03:49:30;;;;;;;21.93;15.08;;;;;;;27.42;53.94;99900.23;1814104;77;21189;-68
2021/07/11 03:51:59;;;;;;;18.00;14.35;;;;;;;27.42;54.07;99894.22;1813765;77;21045;-68
2021/07/11 03:54:26;;;;;;;16.95;14.83;;;;;;;27.43;54.12;99895.88;1817237;77;21009;-68
2021/07/11 03:56:53;;;;;;;17.07;14.40;;;;;;;27.44;54.13;99900.22;1859307;77;21079;-68
2021/07/11 03:59:20;;;;;;;16.15;13.80;;;;;;;27.45;54.10;99900.50;1827464;77;21086;-68
2021/07/11 04:01:46;;;;;;;17.60;14.15;;;;;;;27.47;53.98;99896.14;1836113;77;21202;-67
2021/07/11 04:04:18;;;;;;;15.85;14.20;;;;;;;27.49;54.00;99898.05;1841219;77;20986;-67
2021/07/11 04:06:49;;;;;;;17.52;14.98;;;;;;;27.50;54.01;99896.94;1816646;77;21038;-68
2021/07/11 04:09:18;;;;;;;15.63;13.98;;;;;;;27.52;53.99;99896.11;1813703;77;21001;-67
2021/07/11 04:11:46;;;;;;;14.68;12.37;;;;;;;27.54;53.88;99900.73;1846148;77;21046;-67
2021/07/11 04:14:17;;;;;;;16.67;11.12;;;;;;;27.56;53.26;99895.02;1837352;77;21070;-67
2021/07/11 04:16:46;;;;;;;12.95;10.35;;;;;;;27.57;52.36;99901.56;1820320;77;21563;-68
2021/07/11 04:19:12;;;;;;;10.30;9.25;;;;;;;27.61;51.45;99894.45;1835227;77;21052;-68
2021/07/11 04:21:39;;;;;;;11.43;9.10;;;;;;;27.64;50.76;99893.07;1824205;77;21037;-67
2021/07/11 04:24:05;;;;;;;9.48;8.05;;;;;;;27.69;50.00;99888.16;1822537;77;21013;-68
2021/07/11 04:26:35;;;;;;;8.70;7.90;;;;;;;27.71;49.43;99888.14;1813938;77;21554;-68
2021/07/11 04:29:02;;;;;;;10.55;7.92;;;;;;;27.76;48.93;99885.96;1813558;77;21018;-68
2021/07/11 04:31:28;;;;;;;9.48;8.33;;;;;;;27.77;48.78;99885.66;1813883;77;21485;-68
2021/07/11 04:33:56;;;;;;;8.48;7.67;;;;;;;27.82;48.57;99888.94;1813838;77;21010;-68
2021/07/11 04:36:23;;;;;;;9.05;8.23;;;;;;;27.85;48.52;99887.83;1814165;77;21002;-68
2021/07/11 04:38:49;;;;;;;11.10;9.25;;;;;;;27.91;48.51;99891.92;1834841;77;21126;-67
2021/07/11 04:41:15;;;;;;;9.35;8.50;;;;;;;27.96;48.88;99892.71;1800501;77;21033;-68
2021/07/11 04:43:44;;;;;;;9.90;8.90;;;;;;;28.02;49.29;99888.86;1825785;77;21081;-68
2021/07/11 04:46:11;;;;;;;10.35;9.15;;;;;;;28.09;49.52;99893.22;1804029;77;21069;-66
2021/07/11 04:48:38;;;;;;;12.98;9.58;;;;;;;28.16;49.77;99897.27;1798823;77;20981;-68
2021/07/11 04:51:05;;;;;;;10.15;9.20;;;;;;;28.23;49.97;99894.22;1803278;77;21214;-67
2021/07/11 04:53:32;;;;;;;11.70;9.48;;;;;;;28.28;49.94;99895.57;1845823;77;21005;-69
2021/07/11 04:55:59;;;;;;;9.20;8.30;;;;;;;28.32;49.29;99892.53;1845011;77;20991;-68
2021/07/11 04:58:25;;;;;;;7.75;7.03;;;;;;;28.36;48.33;99890.06;1798695;77;21081;-68
2021/07/11 05:00:52;;;;;;;8.53;6.80;;;;;;;28.40;47.66;99893.86;1798726;77;21000;-68
2021/07/11 05:03:18;;;;;;;7.78;6.50;;;;;;;28.42;46.94;99895.20;1842754;77;21114;-67
2021/07/11 05:05:44;;;;;;;9.88;6.45;;;;;;;28.46;46.36;99893.28;1820717;77;21064;-67
2021/07/11 05:08:11;;;;;;;6.78;6.17;;;;;;;28.48;45.79;99891.08;1838048;77;21022;-68
2021/07/11 05:10:37;;;;;;;6.80;6.20;;;;;;;28.50;45.62;99892.41;1845918;77;20987;-68
2021/07/11 05:13:04;;;;;;;7.35;6.28;;;;;;;28.53;45.67;99894.63;1844174;77;21072;-68
2021/07/11 05:15:30;;;;;;;6.97;5.83;;;;;;;28.56;45.73;99895.41;1798911;77;21913;-68
2021/07/11 05:17:56;;;;;;;8.40;6.30;;;;;;;28.58;45.70;99895.13;1798689;77;21005;-68
2021/07/11 05:20:23;;;;;;;7.10;6.40;;;;;;;28.61;45.61;99893.20;1844101;77;20974;-70
2021/07/11 05:22:49;;;;;;;7.15;6.45;;;;;;;28.64;45.65;99892.61;1819502;77;21004;-67
2021/07/11 05:25:16;;;;;;;6.15;5.53;;;;;;;28.67;45.67;99892.06;1830580;77;22056;-67
2021/07/11 05:27:42;;;;;;;6.83;6.08;;;;;;;28.70;45.19;99896.94;1800034;77;21101;-68
2021/07/11 05:30:11;;;;;;;6.40;5.80;;;;;;;28.74;44.88;99891.19;1826002;77;21430;-68
2021/07/11 05:32:38;;;;;;;6.47;5.70;;;;;;;28.76;44.63;99893.09;1803110;77;21091;-67
2021/07/11 05:35:05;;;;;;;7.03;5.65;;;;;;;28.78;44.48;99899.08;1822616;77;21060;-67
2021/07/11 05:37:32;;;;;;;8.98;5.60;;;;;;;28.81;44.46;99897.69;1806955;77;21013;-68
2021/07/11 05:39:59;;;;;;;6.70;6.00;;;;;;;28.85;44.71;99902.03;1816732;77;21116;-67
2021/07/11 05:42:26;;;;;;;7.65;6.20;;;;;;;28.88;45.00;99902.28;1848886;77;21005;-68
2021/07/11 05:44:52;;;;;;;6.97;6.25;;;;;;;28.91;45.25;99899.52;1832628;77;21497;-68
2021/07/11 05:47:19;;;;;;;6.40;5.80;;;;;;;28.94;45.63;99897.59;1862510;77;21520;-67
2021/07/11 05:49:45;;;;;;;7.90;6.92;;;;;;;28.98;45.84;99908.22;1818971;77;20994;-68
2021/07/11 05:52:12;;;;;;;10.15;6.78;;;;;;;29.00;45.90;99896.44;1842342;77;21136;-67
2021/07/11 05:54:40;;;;;;;8.08;7.15;;;;;;;29.04;46.01;99896.13;1830307;77;21018;-69
2021/07/11 05:57:06;;;;;;;7.75;6.95;;;;;;;29.07;46.12;99895.56;1840882;77;21524;-67
2021/07/11 05:59:32;;;;;;;8.48;6.62;;;;;;;29.10;46.00;99897.70;1820596;77;21041;-68
2021/07/11 06:01:59;;;;;;;7.28;6.20;;;;;;;29.13;46.05;99901.27;1862623;77;20989;-67
2021/07/11 06:04:25;;;;;;;11.30;6.90;;;;;;;29.16;45.94;99897.95;1862574;77;21142;-68
2021/07/11 06:06:51;;;;;;;7.58;6.33;;;;;;;29.19;45.95;99897.38;1817206;77;21037;-68
2021/07/11 06:09:18;;;;;;;7.20;6.45;;;;;;;29.21;45.99;99892.44;1844192;77;21063;-68
2021/07/11 06:11:44;;;;;;;8.00;6.62;;;;;;;29.24;46.07;99892.41;1821386;77;21045;-67
2021/07/11 06:14:14;;;;;;;7.17;6.37;;;;;;;29.28;46.06;99888.54;1816844;77;21088;-68
2021/07/11 06:16:41;;;;;;;6.45;5.55;;;;;;;29.31;46.07;99886.61;1817100;77;21972;-68
2021/07/11 06:19:07;;;;;;;6.22;5.55;;;;;;;29.33;45.87;99887.13;1816720;77;20997;-67
2021/07/11 06:21:34;;;;;;;7.30;5.70;;;;;;;29.36;45.53;99889.27;1816881;77;21025;-68
2021/07/11 06:24:00;;;;;;;10.90;6.05;;;;;;;29.39;45.32;99882.67;1816916;77;21510;-68
2021/07/11 06:26:27;;;;;;;6.72;6.00;;;;;;;29.41;45.39;99880.45;1817021;77;21072;-67
2021/07/11 06:28:53;;;;;;;6.37;5.85;;;;;;;29.44;45.43;99884.55;1817243;77;21140;-68
2021/07/11 06:31:20;;;;;;;6.37;5.67;;;;;;;29.47;45.37;99883.95;1833700;77;21003;-67
2021/07/11 06:33:46;;;;;;;7.40;5.25;;;;;;;29.50;45.06;99887.49;1831771;77;21045;-67
2021/07/11 06:36:13;;;;;;;5.87;5.28;;;;;;;29.52;45.02;99883.91;1817257;77;21493;-67
2021/07/11 06:38:41;;;;;;;6.70;5.25;;;;;;;29.55;44.83;99881.13;1843094;77;21029;-67
2021/07/11 06:41:07;;;;;;;5.97;5.47;;;;;;;29.58;44.89;99884.67;1827303;77;23398;-68
2021/07/11 06:43:33;;;;;;;6.17;5.58;;;;;;;29.59;44.97;99883.02;1859525;77;20982;-69
2021/07/11 06:46:00;;;;;;;6.35;5.72;;;;;;;29.63;44.90;99883.78;1822527;77;21025;-68
2021/07/11 06:48:27;;;;;;;7.65;5.92;;;;;;;29.65;44.77;99883.77;1813918;77;21185;-67
2021/07/11 06:50:53;;;;;;;6.55;5.42;;;;;;;29.67;44.67;99876.08;1846068;77;21509;-67
2021/07/11 06:53:20;;;;;;;7.58;5.62;;;;;;;29.70;44.62;99876.04;1814034;77;21043;-69
2021/07/11 06:55:47;;;;;;;6.08;5.55;;;;;;;29.73;44.65;99883.72;1842909;77;21524;-67
2021/07/11 06:58:14;;;;;;;6.00;5.40;;;;;;;29.74;44.58;99876.55;1816275;77;21147;-68
2021/07/11 07:00:40;;;;;;;6.60;5.60;;;;;;;29.76;44.46;99873.53;1838704;77;21012;-68
2021/07/11 07:03:08;;;;;;;6.75;5.60;;;;;;;29.78;44.24;99872.68;1820106;77;21087;-68
2021/07/11 07:05:35;;;;;;;7.00;5.55;;;;;;;29.81;44.27;99874.04;1814132;77;21101;-68
2021/07/11 07:08:02;;;;;;;5.25;4.75;;;;;;;29.83;44.13;99879.47;1816968;77;21022;-69
2021/07/11 07:10:29;;;;;;;6.00;5.45;;;;;;;29.83;44.15;99871.25;1842060;77;21486;-69
2021/07/11 07:12:55;;;;;;;6.58;5.80;;;;;;;29.86;44.40;99874.76;1813941;77;20970;-67
2021/07/11 07:15:22;;;;;;;6.62;5.97;;;;;;;29.89;44.45;99878.30;1813954;77;21057;-68
2021/07/11 07:17:50;;;;;;;5.83;5.33;;;;;;;29.91;44.59;99880.74;1841530;77;21029;-68
2021/07/11 07:20:18;;;;;;;6.17;5.58;;;;;;;29.93;44.63;99881.27;1849158;77;21073;-69
2021/07/11 07:22:45;;;;;;;9.73;6.35;;;;;;;29.94;44.58;99880.98;1837958;77;21142;-68
2021/07/11 07:25:14;;;;;;;6.50;5.90;;;;;;;29.97;44.79;99885.84;1821436;77;21478;-68
2021/07/11 07:27:41;;;;;;;7.15;5.97;;;;;;;29.99;44.77;99885.00;1822522;77;21557;-68
2021/07/11 07:30:11;;;;;;;7.25;6.65;;;;;;;30.01;45.00;99878.42;1840392;77;20978;-68
2021/07/11 07:32:37;;;;;;;6.25;5.65;;;;;;;30.04;45.18;99887.41;1818118;77;21045;-69
2021/07/11 07:35:05;;;;;;;6.97;6.28;;;;;;;30.06;45.31;99889.33;1813777;77;21069;-68
2021/07/11 07:37:32;;;;;;;6.83;6.22;;;;;;;30.06;45.34;99886.02;1851396;76;21512;-68
2021/07/11 07:39:59;;;;;;;7.90;7.15;;;;;;;30.09;45.23;99889.52;1861776;76;21135;-69
2021/07/11 07:42:25;;;;;;;6.10;5.50;;;;;;;30.10;45.17;99891.73;1863091;77;21592;-68
2021/07/11 07:44:53;;;;;;;6.17;5.62;;;;;;;30.11;45.11;99887.30;1862936;76;21041;-68
2021/07/11 07:47:19;;;;;;;6.78;5.97;;;;;;;30.14;45.15;99885.36;1826372;77;21053;-68
2021/07/11 07:49:46;;;;;;;5.75;5.30;;;;;;;30.16;45.08;99885.06;1846220;77;21064;-68
2021/07/11 07:52:13;;;;;;;6.15;5.65;;;;;;;30.17;45.20;99885.31;1838261;77;21471;-68
2021/07/11 07:54:39;;;;;;;6.72;6.12;;;;;;;30.18;45.23;99883.65;1863006;77;21095;-69
2021/07/11 07:57:05;;;;;;;8.80;6.53;;;;;;;30.21;45.35;99882.27;1836127;77;21068;-68
2021/07/11 07:59:32;;;;;;;7.35;6.65;;;;;;;30.22;45.41;99871.55;1810390;77;21501;-68
2021/07/11 08:01:58;;;;;;;6.47;5.90;;;;;;;30.24;45.39;99883.02;1862771;77;21123;-71
2021/07/11 08:04:24;;;;;;;6.37;5.78;;;;;;;30.27;45.40;99878.87;1824324;77;21588;-68
2021/07/11 08:06:51;;;;;;;7.30;6.70;;;;;;;30.30;45.48;99874.18;1806445;77;21131;-68
2021/07/11 08:09:19;;;;;;;7.03;6.33;;;;;;;30.31;45.54;99872.55;1840150;77;20998;-68
2021/07/11 08:11:45;;;;;;;7.12;5.95;;;;;;;30.33;45.53;99873.63;1851328;77;21014;-67
2021/07/11 08:14:13;;;;;;;7.08;6.47;;;;;;;30.36;45.63;99873.02;1806277;77;21064;-67
2021/07/11 08:16:44;;;;;;;6.65;6.00;;;;;;;30.36;45.65;99871.08;1814054;77;21052;-68
2021/07/11 08:19:11;;;;;;;6.87;6.28;;;;;;;30.39;45.67;99872.44;1836539;77;21129;-68
2021/07/11 08:21:37;;;;;;;6.70;6.10;;;;;;;30.41;45.66;99874.89;1810042;77;21060;-69
2021/07/11 08:24:05;;;;;;;7.25;6.65;;;;;;;30.43;45.69;99878.14;1852815;77;21052;-69
2021/07/11 08:26:32;;;;;;;6.85;6.35;;;;;;;30.45;45.57;99869.06;1806541;77;21049;-69
2021/07/11 08:28:59;;;;;;;7.25;6.60;;;;;;;30.47;45.43;99868.20;1806262;77;21064;-69
2021/07/11 08:31:28;;;;;;;6.12;5.53;;;;;;;30.49;45.20;99867.35;1806391;77;21246;-68
2021/07/11 08:33:55;;;;;;;6.35;5.85;;;;;;;30.50;45.11;99860.74;1806168;77;21069;-68
2021/07/11 08:36:21;;;;;;;6.72;6.15;;;;;;;30.53;45.27;99863.70;1806183;77;21020;-69
2021/07/11 08:38:48;;;;;;;6.72;6.10;;;;;;;30.55;45.24;99858.73;1842429;77;21478;-68
2021/07/11 08:41:14;;;;;;;6.37;5.87;;;;;;;30.57;45.25;99857.88;1816074;77;21032;-68
2021/07/11 08:43:41;;;;;;;6.75;6.12;;;;;;;30.59;45.23;99854.84;1813901;77;21778;-68
2021/07/11 08:46:08;;;;;;;6.58;5.97;;;;;;;30.62;45.26;99853.42;1845550;77;21076;-68
2021/07/11 08:48:35;;;;;;;6.20;5.70;;;;;;;30.64;45.22;99853.97;1813647;77;21564;-68
2021/07/11 08:51:02;;;;;;;6.47;5.97;;;;;;;30.66;45.26;99856.66;1845930;77;21049;-68
2021/07/11 08:53:34;;;;;;;6.50;6.00;;;;;;;30.69;45.24;99857.98;1813783;77;20959;-67
2021/07/11 08:56:02;;;;;;;6.80;6.10;;;;;;;30.70;45.19;99853.57;1845686;77;21129;-67
2021/07/11 08:58:30;;;;;;;7.10;6.42;;;;;;;30.73;45.23;99856.27;1813798;77;21053;-67
2021/07/11 09:00:56;;;;;;;7.20;6.60;;;;;;;30.74;45.25;99854.59;1843710;77;21011;-68
2021/07/11 09:03:23;;;;;;;6.75;6.03;;;;;;;30.76;45.30;99846.88;1815503;77;20999;-68
2021/07/11 09:05:53;;;;;;;6.80;6.20;;;;;;;30.78;45.29;99848.77;1839453;77;20981;-68
2021/07/11 09:08:24;;;;;;;7.30;6.63;;;;;;;30.81;45.34;99852.02;1850121;77;22305;-68
2021/07/11 09:10:58;;;;;;;6.80;6.30;;;;;;;30.84;45.36;99854.17;1838227;77;21025;-68
2021/07/11 09:13:28;;;;;;;5.97;5.58;;;;;;;30.85;45.40;99859.36;1827484;77;21041;-67
2021/07/11 09:15:59;;;;;;;6.78;6.20;;;;;;;30.86;45.37;99847.83;1859232;77;21005;-68
2021/07/11 09:18:31;;;;;;;6.60;6.10;;;;;;;30.89;45.33;99853.56;1827287;77;21084;-68
2021/07/11 09:21:01;;;;;;;7.00;5.80;;;;;;;30.91;45.29;99846.41;1835886;77;21061;-68
2021/07/11 09:23:29;;;;;;;6.67;6.12;;;;;;;30.94;45.25;99844.42;1813699;77;21014;-68
2021/07/11 09:26:02;;;;;;;6.35;5.75;;;;;;;30.96;45.19;99846.30;1856753;77;21251;-67
2021/07/11 09:28:31;;;;;;;6.30;5.80;;;;;;;30.98;45.16;99849.55;1859412;77;21500;-68
2021/07/11 09:31:08;;;;;;;6.72;6.12;;;;;;;31.02;45.16;99852.51;1849385;77;21018;-68
2021/07/11 09:33:37;;;;;;;6.08;5.58;;;;;;;31.04;45.08;99844.79;1813797;77;21885;-68
2021/07/11 09:36:18;;;;;;;6.50;6.00;;;;;;;31.07;45.11;99834.03;1813563;77;21034;-68
2021/07/11 09:38:51;;;;;;;6.47;5.90;;;;;;;31.09;45.09;99833.16;1813907;77;21080;-68
2021/07/11 09:41:29;;;;;;;6.33;5.67;;;;;;;31.12;45.13;99822.97;1813911;77;21670;-67
2021/07/11 09:43:58;;;;;;;6.00;5.50;;;;;;;31.15;45.10;99823.72;1814102;77;21018;-70
2021/07/11 09:46:26;;;;;;;6.60;6.00;;;;;;;31.16;45.08;99826.73;1813706;77;21150;-68
2021/07/11 09:48:53;;;;;;;6.75;6.08;;;;;;;31.21;45.06;99825.00;1813974;77;21070;-67
2021/07/11 09:51:28;;;;;;;6.47;5.92;;;;;;;31.25;45.07;99830.13;1845719;77;21026;-68
2021/07/11 09:53:55;;;;;;;6.45;5.95;;;;;;;31.27;45.08;99827.89;1839184;77;21713;-68
2021/07/11 09:56:36;;;;;;;6.30;5.70;;;;;;;31.30;45.11;99833.59;1819594;77;21060;-70
2021/07/11 09:59:05;;;;;;;6.22;5.72;;;;;;;31.32;45.07;99831.92;1814788;77;21207;-67
2021/07/11 10:01:33;;;;;;;6.55;5.95;;;;;;;31.34;45.06;99830.49;1850299;77;21072;-68
2021/07/11 10:04:00;;;;;;;6.40;5.80;;;;;;;31.36;45.03;99832.38;1813880;77;21501;-69
2021/07/11 10:06:27;;;;;;;5.70;5.30;;;;;;;31.39;44.93;99832.34;1851125;77;21041;-69
2021/07/11 10:08:55;;;;;;;6.62;6.10;;;;;;;31.41;44.87;99826.52;1839699;77;21041;-67
2021/07/11 10:11:23;;;;;;;6.47;5.90;;;;;;;31.45;44.85;99816.58;1848306;77;21121;-68
2021/07/11 10:13:50;;;;;;;6.30;5.67;;;;;;;31.48;44.83;99829.14;1859304;77;21005;-69
2021/07/11 10:16:17;;;;;;;5.58;5.17;;;;;;;31.50;44.75;99829.65;1828879;77;21682;-69
2021/07/11 10:18:45;;;;;;;6.33;5.72;;;;;;;31.53;44.69;99823.56;1813762;77;21002;-67
2021/07/11 10:21:14;;;;;;;6.20;5.60;;;;;;;31.57;44.63;99818.84;1841257;77;20978;-68
2021/07/11 10:23:41;;;;;;;5.85;5.35;;;;;;;31.61;44.64;99819.28;1849792;77;21126;-67
2021/07/11 10:26:12;;;;;;;6.25;5.67;;;;;;;31.64;44.62;99826.08;1828519;77;21044;-67
2021/07/11 10:28:45;;;;;;;6.20;5.70;;;;;;;31.68;44.57;99825.72;1829351;77;21485;-69
2021/07/11 10:31:24;;;;;;;6.60;6.10;;;;;;;31.71;44.56;99825.92;1835686;77;21005;-67
2021/07/11 10:33:53;;;;;;;6.03;5.42;;;;;;;31.75;44.54;99827.50;1813945;77;21018;-68
2021/07/11 10:36:33;;;;;;;6.12;5.53;;;;;;;31.81;44.58;99833.70;1859299;77;21177;-67
2021/07/11 10:39:00;;;;;;;7.15;6.35;;;;;;;31.85;44.59;99815.48;1827450;77;21037;-67
2021/07/11 10:41:29;;;;;;;8.63;7.72;;;;;;;31.90;44.61;99813.43;1846726;77;20999;-67
2021/07/11 10:44:11;;;;;;;9.78;7.75;;;;;;;31.97;44.59;99811.65;1815151;77;21057;-68
2021/07/11 10:46:45;;;;;;;11.48;8.70;;;;;;;32.03;44.53;99815.12;1825800;77;21001;-67
2021/07/11 10:49:31;;;;;;;18.52;10.45;;;;;;;32.09;44.45;99815.25;1845016;77;21129;-68
2021/07/11 10:52:08;;;;;;;17.95;10.85;;;;;;;32.13;44.39;99831.37;1797952;77;21528;-68
2021/07/11 10:54:54;;;;;;;18.87;12.13;;;;;;;32.18;44.06;99819.44;1798821;77;21052;-68
2021/07/11 10:57:34;;;;;;;19.98;12.70;;;;;;;32.22;43.83;99814.94;1798806;77;21040;-68
2021/07/11 11:00:19;;;;;;;21.10;12.30;;;;;;;32.26;43.78;99811.81;1812124;77;21474;-67
2021/07/11 11:02:48;;;;;;;17.73;11.28;;;;;;;32.31;43.68;99815.83;1813143;77;21075;-69
2021/07/11 11:05:26;;;;;;;15.28;10.70;;;;;;;32.35;43.60;99819.57;1809980;77;21461;-68
2021/07/11 11:07:56;;;;;;;19.82;13.25;;;;;;;32.39;43.56;99812.89;1832172;77;21092;-67
2021/07/11 11:10:33;;;;;;;23.95;13.53;;;;;;;32.45;43.45;99815.76;1845926;77;21049;-68
2021/07/11 11:13:20;;;;;;;23.95;14.78;;;;;;;32.50;43.38;99817.82;1845200;77;21488;-68
2021/07/11 11:15:58;;;;;;;25.75;14.28;;;;;;;32.57;43.28;99807.80;1799016;77;21080;-67
2021/07/11 11:18:38;;;;;;;25.90;14.47;;;;;;;32.63;43.18;99802.42;1798592;77;21159;-67
2021/07/11 11:21:18;;;;;;;28.73;15.23;;;;;;;32.70;43.10;99814.33;1798683;77;21036;-67
2021/07/11 11:23:49;;;;;;;28.07;15.10;;;;;;;32.75;42.97;99803.78;1798716;77;21320;-67
2021/07/11 11:26:23;;;;;;;24.25;15.00;;;;;;;32.80;42.82;99807.75;1798787;77;21076;-70
2021/07/11 11:28:52;;;;;;;24.10;14.58;;;;;;;32.83;42.64;99807.94;1800856;77;21079;-68
2021/07/11 11:31:24;;;;;;;28.83;14.25;;;;;;;32.86;42.46;99803.77;1828931;77;21540;-68
2021/07/11 11:34:04;;;;;;;;;;;;;;;32.90;42.41;99799.25;1801502;77;20996;-68
2021/07/11 11:36:46;;;;;;;27.00;15.20;;;;;;;32.95;42.35;99799.09;1798713;77;20127;-67
2021/07/11 11:39:28;;;;;;;34.15;16.97;;;;;;;32.93;42.47;99795.05;1837215;77;21021;-68